Αρχική σελίδα
METAR-TAF:

METAR-TAF

Αεροδρόμια :

Πλατφόρμα πετρελαίου

Troll A, Νορβηγία

γεωγραφικό πλάτος: 60-38-42N, γεωγραφικό μήκος: 3-43-29E, υψόμετρο: 20 μ

Παρών καιρός

Η αναφορά έγινε 43 λεπτά πριν, στις 07:50 UTC
Άνεμος 12 kt από Ν
Θερμοκρασία 14°C
Υγρασία 100%
Πίεση 1005 hPa
Ορατότητα: 0550 μ
ομίχλη,

METAR: ENQA 150750Z AUTO 18012KT 0550 FG VV250 14/14 Q1005 W///S3

Χρόνος: 10:33 (08:33 UTC)


TAF: λείπει

Μετεωρολογικές αναφορές και προγνώσεις για περισσότερα από 4000 αεροδρόμια (δελτία METAR και TAF).

Οι διαθέσιμοι σταθμοί απεικονίζονται στο χάρτη με κίτρινες και κόκκινες κουκκίδες.

Μετακινήστε το ποντίκι πάνω από τις κουκκίδες για να δείτε το όνομα του σταθμού.

Στη συνέχεια, κάντε κλικ για να δείτε τις μετεωρολογικές αναφορές και τις προγνώσεις καιρού.

Για να αλλάξετε το χάρτη: κάντε κλικ στα πράσινα κουμπιά με τον μαύρο σταυρό για να ζουμάρετε, στο πράσινο κουμπί με την παύλα για να αφαιρέσετε το ζουμ ή στα πράσινα βέλη για να αντιπαραβάλλετε χάρτες.


METAR-TAF: